Flight Information

DEPARTURE
CARLSBAD, CA
Elevation:
330
Runways:
6/24 - 4897x150 - ASPH-G
H1 - 40x50 - CONC-G
ATIS:
120.15 760-438-2117
Clearance Delivery:
134.85
Ground:
121.8
Tower:
118.6
DESTINATION
VAN NUYS, CA
Elevation:
802
TPA:
1802 (est.)
Runways:
16L/34R - 4013x75 - ASPH-G
16R/34L - 8001x150 - ASPH-G
ATIS:
127.55 818-780-4993
Tower:
119.3 (162°-345° and dep Rwy 16R-34L)
120.2 (346°-161° and dep Rwy 16L-34R)
Ground:
121.7


88.7 NM317° True-13° Var304° HDG

Flight Plan:
(click to file on line)

1. Type
2. Aircraft Identification
3. Aircraft Type / Special Equipment
4. True Airspeed
kts
5. Departure Airport
(ICAO code)
6. Arriving Airport
(ICAO code)
7. Cruising Altitude
ft
8. Alternate Airport
(ICAO code)
9. Route of Flight
10. Remarks


00:00:00 Departure ATIS: Destination ATIS:

Clearance Limit:
Route:
Altitude: Expect in minutes
Frequency:
Transponder: (7500 Hijack / 7600 Lost Comms / 7700 Emergency)


KCRQ 181253Z AUTO 00000KT 10SM BKN010 21/18 A2990 RMK AO2 SLP124 T02060183
Time: 2022-08-18T12:53:00Z
1660829689
Winds: calm
Visibility: 10.0 sm
Clouds (AGL): BKN 1000
Temperature: 20.6 C
Dew Point: 18.3 C
Pressure: 29.899607 in Hgbr

KVNY 181251Z 00000KT 10SM CLR 21/13 A2992 RMK AO2 SLP120 T02060133
Time: 2022-08-18T12:51:00Z
1660829689
Winds: calm
Visibility: 10.0 sm
Clouds (AGL): CLR
Temperature: 20.6 C
Dew Point: 13.3 C
Pressure: 29.920275 in Hgbr


Notes:

Data extracted from FAA Digital Chart Supplement. Effective: 0901Z Thursday, 27 JAN 2022 to 0900z Thursday, 24 MAR 2022
Current ATIS data is provided courtisy of PilotEdge.